sensor_id;sensor_type;location;lat;lon;timestamp;pressure;altitude;pressure_sealevel;temperature;humidity
13767;BME280;47980;48.794;9.176;2024-03-23T00:54:45;97503.13;;;11.21;75.38
13767;BME280;47980;48.794;9.176;2024-03-23T00:57:17;97498.25;;;11.23;74.45
13767;BME280;47980;48.794;9.176;2024-03-23T00:59:47;97498.47;;;11.18;74.70
13767;BME280;47980;48.794;9.176;2024-03-23T01:02:19;97492.09;;;11.19;72.94
13767;BME280;47980;48.794;9.176;2024-03-23T01:04:49;97491.13;;;11.27;73.36
13767;BME280;47980;48.794;9.176;2024-03-23T01:07:21;97485.03;;;11.42;72.64
13767;BME280;47980;48.794;9.176;2024-03-23T01:09:52;97491.19;;;11.62;72.09
13767;BME280;47980;48.794;9.176;2024-03-23T01:12:24;97483.38;;;11.69;70.42
13767;BME280;47980;48.794;9.176;2024-03-23T01:14:54;97481.44;;;11.86;69.34
13767;BME280;47980;48.794;9.176;2024-03-23T01:17:26;97474.91;;;11.99;69.95
13767;BME280;47980;48.794;9.176;2024-03-23T01:19:56;97459.72;;;11.99;69.56
13767;BME280;47980;48.794;9.176;2024-03-23T01:22:28;97461.25;;;12.00;70.65
13767;BME280;47980;48.794;9.176;2024-03-23T01:25:00;97462.31;;;11.96;71.01
13767;BME280;47980;48.794;9.176;2024-03-23T01:27:31;97460.41;;;11.96;70.31
13767;BME280;47980;48.794;9.176;2024-03-23T01:30:02;97456.63;;;11.97;71.88
13767;BME280;47980;48.794;9.176;2024-03-23T01:32:34;97451.44;;;12.04;71.95
13767;BME280;47980;48.794;9.176;2024-03-23T01:35:04;97448.72;;;12.01;71.55
13767;BME280;47980;48.794;9.176;2024-03-23T01:37:36;97446.56;;;12.07;70.98
13767;BME280;47980;48.794;9.176;2024-03-23T01:40:09;97444.75;;;12.11;71.31
13767;BME280;47980;48.794;9.176;2024-03-23T01:42:55;97439.44;;;12.11;70.55
13767;BME280;47980;48.794;9.176;2024-03-23T01:45:25;97449.84;;;12.19;68.42
13767;BME280;47980;48.794;9.176;2024-03-23T01:47:57;97437.94;;;12.33;70.06
13767;BME280;47980;48.794;9.176;2024-03-23T01:50:29;97425.06;;;12.35;69.21
13767;BME280;47980;48.794;9.176;2024-03-23T01:53:04;97431.22;;;12.39;67.51
13767;BME280;47980;48.794;9.176;2024-03-23T01:55:37;97416.75;;;12.59;66.12
13767;BME280;47980;48.794;9.176;2024-03-23T01:58:09;97414.59;;;12.45;67.60
13767;BME280;47980;48.794;9.176;2024-03-23T02:00:40;97394.50;;;12.48;67.85
13767;BME280;47980;48.794;9.176;2024-03-23T02:03:24;97411.41;;;12.36;69.07
13767;BME280;47980;48.794;9.176;2024-03-23T02:05:55;97404.31;;;12.21;69.67
13767;BME280;47980;48.794;9.176;2024-03-23T02:08:35;97396.72;;;12.23;68.25
13767;BME280;47980;48.794;9.176;2024-03-23T02:11:07;97399.56;;;12.34;68.49
13767;BME280;47980;48.794;9.176;2024-03-23T02:13:40;97400.66;;;12.29;69.24
13767;BME280;47980;48.794;9.176;2024-03-23T02:16:10;97393.78;;;12.28;69.63
13767;BME280;47980;48.794;9.176;2024-03-23T02:18:43;97394.06;;;12.23;69.90
13767;BME280;47980;48.794;9.176;2024-03-23T02:21:15;97383.44;;;12.23;69.65
13767;BME280;47980;48.794;9.176;2024-03-23T02:23:47;97391.91;;;12.28;69.30
13767;BME280;47980;48.794;9.176;2024-03-23T02:26:18;97381.09;;;12.41;68.68
13767;BME280;47980;48.794;9.176;2024-03-23T02:28:49;97375.19;;;12.28;69.98
13767;BME280;47980;48.794;9.176;2024-03-23T02:31:20;97378.19;;;12.26;69.19
13767;BME280;47980;48.794;9.176;2024-03-23T02:33:51;97372.28;;;12.37;69.14
13767;BME280;47980;48.794;9.176;2024-03-23T02:36:22;97374.94;;;12.37;69.20
13767;BME280;47980;48.794;9.176;2024-03-23T02:38:55;97379.78;;;12.31;69.20
13767;BME280;47980;48.794;9.176;2024-03-23T02:41:27;97379.19;;;12.41;69.06
13767;BME280;47980;48.794;9.176;2024-03-23T02:44:01;97367.50;;;12.46;69.72
13767;BME280;47980;48.794;9.176;2024-03-23T02:46:32;97365.06;;;12.37;69.77
13767;BME280;47980;48.794;9.176;2024-03-23T02:49:03;97370.69;;;12.32;71.42
13767;BME280;47980;48.794;9.176;2024-03-23T02:51:34;97361.41;;;12.22;71.39
13767;BME280;47980;48.794;9.176;2024-03-23T02:54:09;97354.88;;;12.20;72.47
13767;BME280;47980;48.794;9.176;2024-03-23T02:56:40;97345.88;;;12.24;70.88
13767;BME280;47980;48.794;9.176;2024-03-23T02:59:12;97353.53;;;12.29;70.79
13767;BME280;47980;48.794;9.176;2024-03-23T03:01:42;97356.25;;;12.33;70.73
13767;BME280;47980;48.794;9.176;2024-03-23T03:04:14;97356.25;;;12.33;70.67
13767;BME280;47980;48.794;9.176;2024-03-23T03:06:46;97345.75;;;12.40;71.42
13767;BME280;47980;48.794;9.176;2024-03-23T03:09:19;97346.03;;;12.35;70.94
13767;BME280;47980;48.794;9.176;2024-03-23T03:11:50;97348.16;;;12.26;72.69
13767;BME280;47980;48.794;9.176;2024-03-23T03:14:24;97342.97;;;12.10;73.22
13767;BME280;47980;48.794;9.176;2024-03-23T03:16:54;97339.94;;;12.12;72.23
13767;BME280;47980;48.794;9.176;2024-03-23T03:19:26;97338.22;;;12.00;73.29
13767;BME280;47980;48.794;9.176;2024-03-23T03:21:57;97330.94;;;11.97;74.01
13767;BME280;47980;48.794;9.176;2024-03-23T03:24:30;97337.31;;;11.92;75.05
13767;BME280;47980;48.794;9.176;2024-03-23T03:27:00;97330.66;;;12.02;74.10
13767;BME280;47980;48.794;9.176;2024-03-23T03:29:33;97329.75;;;11.94;75.00
13767;BME280;47980;48.794;9.176;2024-03-23T03:32:06;97330.75;;;11.86;74.92
13767;BME280;47980;48.794;9.176;2024-03-23T03:34:37;97322.00;;;11.86;75.58
13767;BME280;47980;48.794;9.176;2024-03-23T03:37:08;97316.13;;;11.76;75.60
13767;BME280;47980;48.794;9.176;2024-03-23T03:39:41;97316.47;;;11.75;76.08
13767;BME280;47980;48.794;9.176;2024-03-23T03:42:11;97314.09;;;11.70;76.35
13767;BME280;47980;48.794;9.176;2024-03-23T03:44:45;97312.19;;;11.70;76.87
13767;BME280;47980;48.794;9.176;2024-03-23T03:47:16;97308.84;;;11.73;76.17
13767;BME280;47980;48.794;9.176;2024-03-23T03:49:54;97303.09;;;11.71;75.88
13767;BME280;47980;48.794;9.176;2024-03-23T03:52:25;97299.06;;;11.77;77.13
13767;BME280;47980;48.794;9.176;2024-03-23T03:55:01;97288.72;;;11.53;78.31
13767;BME280;47980;48.794;9.176;2024-03-23T03:57:32;97281.38;;;11.46;78.86
13767;BME280;47980;48.794;9.176;2024-03-23T04:00:05;97279.47;;;11.47;80.21
13767;BME280;47980;48.794;9.176;2024-03-23T04:02:36;97261.19;;;11.42;80.70
13767;BME280;47980;48.794;9.176;2024-03-23T04:05:07;97250.06;;;11.36;78.90
13767;BME280;47980;48.794;9.176;2024-03-23T04:07:38;97249.94;;;11.29;81.84
13767;BME280;47980;48.794;9.176;2024-03-23T04:10:11;97252.25;;;11.30;80.81
13767;BME280;47980;48.794;9.176;2024-03-23T04:12:43;97243.22;;;11.35;80.57
13767;BME280;47980;48.794;9.176;2024-03-23T04:15:15;97233.38;;;11.36;81.85
13767;BME280;47980;48.794;9.176;2024-03-23T04:17:46;97232.44;;;11.47;80.07
13767;BME280;47980;48.794;9.176;2024-03-23T04:20:17;97234.53;;;11.57;78.80
13767;BME280;47980;48.794;9.176;2024-03-23T04:22:48;97226.81;;;11.72;78.16
13767;BME280;47980;48.794;9.176;2024-03-23T04:25:21;97230.88;;;11.85;78.18
13767;BME280;47980;48.794;9.176;2024-03-23T04:27:51;97239.16;;;12.03;76.04
13767;BME280;47980;48.794;9.176;2024-03-23T04:30:23;97249.50;;;12.31;74.49
13767;BME280;47980;48.794;9.176;2024-03-23T04:32:55;97262.97;;;12.45;74.91
13767;BME280;47980;48.794;9.176;2024-03-23T04:35:27;97309.16;;;12.83;72.81
13767;BME280;47980;48.794;9.176;2024-03-23T04:37:57;97312.63;;;12.87;76.11
13767;BME280;47980;48.794;9.176;2024-03-23T04:40:31;97309.50;;;12.55;80.90
13767;BME280;47980;48.794;9.176;2024-03-23T04:43:03;97278.75;;;12.31;85.77
13767;BME280;47980;48.794;9.176;2024-03-23T04:45:35;97274.63;;;12.37;85.91
13767;BME280;47980;48.794;9.176;2024-03-23T04:48:07;97275.38;;;12.11;89.65
13767;BME280;47980;48.794;9.176;2024-03-23T04:50:38;97293.44;;;12.02;91.46
13767;BME280;47980;48.794;9.176;2024-03-23T04:53:09;97294.91;;;12.22;90.65
13767;BME280;47980;48.794;9.176;2024-03-23T04:55:41;97298.47;;;12.07;93.75
13767;BME280;47980;48.794;9.176;2024-03-23T04:58:13;97298.88;;;12.09;95.76
13767;BME280;47980;48.794;9.176;2024-03-23T05:00:44;97294.16;;;11.99;96.70
13767;BME280;47980;48.794;9.176;2024-03-23T05:03:15;97304.59;;;11.88;97.67
13767;BME280;47980;48.794;9.176;2024-03-23T05:05:45;97309.91;;;11.88;100.00
13767;BME280;47980;48.794;9.176;2024-03-23T05:08:17;97304.22;;;11.90;100.00
13767;BME280;47980;48.794;9.176;2024-03-23T05:10:49;97314.09;;;11.89;100.00
13767;BME280;47980;48.794;9.176;2024-03-23T05:13:21;97307.03;;;11.77;100.00
13767;BME280;47980;48.794;9.176;2024-03-23T05:15:53;97314.09;;;11.89;100.00
13767;BME280;47980;48.794;9.176;2024-03-23T05:18:23;97314.38;;;11.84;100.00
13767;BME280;47980;48.794;9.176;2024-03-23T05:20:57;97324.44;;;11.75;98.28
13767;BME280;47980;48.794;9.176;2024-03-23T05:23:28;97326.94;;;11.68;96.34
13767;BME280;47980;48.794;9.176;2024-03-23T05:26:02;97328.75;;;11.83;95.79
13767;BME280;47980;48.794;9.176;2024-03-23T05:28:33;97323.88;;;11.66;95.69
13767;BME280;47980;48.794;9.176;2024-03-23T05:31:05;97321.03;;;11.55;98.89
13767;BME280;47980;48.794;9.176;2024-03-23T05:33:36;97327.66;;;11.45;98.94
13767;BME280;47980;48.794;9.176;2024-03-23T05:36:08;97331.16;;;11.49;99.50
13767;BME280;47980;48.794;9.176;2024-03-23T05:38:41;97340.63;;;11.31;99.32
13767;BME280;47980;48.794;9.176;2024-03-23T05:41:14;97340.50;;;11.43;99.24
13767;BME280;47980;48.794;9.176;2024-03-23T05:43:45;97341.28;;;11.44;99.79
13767;BME280;47980;48.794;9.176;2024-03-23T05:46:16;97361.19;;;11.34;100.00
13767;BME280;47980;48.794;9.176;2024-03-23T05:48:48;97374.47;;;11.18;100.00
13767;BME280;47980;48.794;9.176;2024-03-23T05:51:21;97390.69;;;11.13;97.97
13767;BME280;47980;48.794;9.176;2024-03-23T05:53:51;97391.56;;;11.01;96.80
13767;BME280;47980;48.794;9.176;2024-03-23T05:56:26;97412.97;;;10.93;96.75
13767;BME280;47980;48.794;9.176;2024-03-23T05:58:58;97389.44;;;10.91;95.61
13767;BME280;47980;48.794;9.176;2024-03-23T06:01:30;97392.00;;;10.88;92.54
13767;BME280;47980;48.794;9.176;2024-03-23T06:04:03;97380.13;;;10.66;92.60
13767;BME280;47980;48.794;9.176;2024-03-23T06:06:34;97368.47;;;10.70;90.74
13767;BME280;47980;48.794;9.176;2024-03-23T06:09:05;97383.38;;;10.75;89.47
13767;BME280;47980;48.794;9.176;2024-03-23T06:11:38;97389.38;;;10.72;88.86
13767;BME280;47980;48.794;9.176;2024-03-23T06:14:08;97398.66;;;10.81;88.64
13767;BME280;47980;48.794;9.176;2024-03-23T06:16:40;97406.53;;;10.78;87.51
13767;BME280;47980;48.794;9.176;2024-03-23T06:19:10;97405.09;;;10.80;86.11
13767;BME280;47980;48.794;9.176;2024-03-23T06:21:43;97410.22;;;10.73;87.10
13767;BME280;47980;48.794;9.176;2024-03-23T06:24:13;97395.44;;;10.72;85.42
13767;BME280;47980;48.794;9.176;2024-03-23T06:26:46;97392.28;;;10.82;84.69
13767;BME280;47980;48.794;9.176;2024-03-23T06:29:17;97413.06;;;10.65;87.04
13767;BME280;47980;48.794;9.176;2024-03-23T06:31:53;97410.91;;;10.70;85.63
13767;BME280;47980;48.794;9.176;2024-03-23T06:34:24;97441.47;;;10.80;86.77
13767;BME280;47980;48.794;9.176;2024-03-23T06:36:55;97451.47;;;10.71;83.44
13767;BME280;47980;48.794;9.176;2024-03-23T06:39:26;97453.84;;;10.60;83.29
13767;BME280;47980;48.794;9.176;2024-03-23T06:41:59;97463.19;;;10.70;81.81
13767;BME280;47980;48.794;9.176;2024-03-23T06:44:29;97469.84;;;10.64;81.07
13767;BME280;47980;48.794;9.176;2024-03-23T06:47:02;97470.03;;;10.71;82.31
13767;BME280;47980;48.794;9.176;2024-03-23T06:49:33;97467.06;;;10.72;83.26
13767;BME280;47980;48.794;9.176;2024-03-23T06:52:05;97492.53;;;10.61;81.92
13767;BME280;47980;48.794;9.176;2024-03-23T06:54:35;97480.63;;;10.55;82.08
13767;BME280;47980;48.794;9.176;2024-03-23T06:57:08;97492.69;;;10.52;85.13
13767;BME280;47980;48.794;9.176;2024-03-23T06:59:38;97498.41;;;10.82;82.31
13767;BME280;47980;48.794;9.176;2024-03-23T07:02:10;97512.00;;;10.81;82.28
13767;BME280;47980;48.794;9.176;2024-03-23T07:04:41;97528.56;;;10.62;80.85
13767;BME280;47980;48.794;9.176;2024-03-23T07:07:12;97514.03;;;10.72;80.94
13767;BME280;47980;48.794;9.176;2024-03-23T07:09:43;97535.50;;;10.67;80.93
13767;BME280;47980;48.794;9.176;2024-03-23T07:12:15;97527.22;;;10.68;80.58
13767;BME280;47980;48.794;9.176;2024-03-23T07:14:46;97545.13;;;10.59;79.19
13767;BME280;47980;48.794;9.176;2024-03-23T07:17:17;97539.69;;;10.68;80.10
13767;BME280;47980;48.794;9.176;2024-03-23T07:19:48;97549.72;;;10.74;78.65
13767;BME280;47980;48.794;9.176;2024-03-23T07:22:20;97538.78;;;10.76;78.75
13767;BME280;47980;48.794;9.176;2024-03-23T07:24:50;97538.47;;;11.25;77.33
13767;BME280;47980;48.794;9.176;2024-03-23T07:27:23;97550.03;;;11.32;77.05
13767;BME280;47980;48.794;9.176;2024-03-23T07:29:54;97555.34;;;11.32;76.26
13767;BME280;47980;48.794;9.176;2024-03-23T07:32:25;97548.41;;;11.28;76.07
13767;BME280;47980;48.794;9.176;2024-03-23T07:34:57;97555.66;;;11.78;75.04
13767;BME280;47980;48.794;9.176;2024-03-23T07:37:28;97554.56;;;11.95;73.61
13767;BME280;47980;48.794;9.176;2024-03-23T07:39:59;97572.56;;;11.86;72.61
13767;BME280;47980;48.794;9.176;2024-03-23T07:42:31;97583.97;;;11.23;74.66
13767;BME280;47980;48.794;9.176;2024-03-23T07:45:02;97586.47;;;10.88;77.23
13767;BME280;47980;48.794;9.176;2024-03-23T07:51:07;97608.06;;;10.22;83.58
13767;BME280;47980;48.794;9.176;2024-03-23T07:53:39;97607.41;;;10.25;84.79
13767;BME280;47980;48.794;9.176;2024-03-23T07:56:12;97623.97;;;10.34;85.94
13767;BME280;47980;48.794;9.176;2024-03-23T07:58:47;97624.38;;;9.38;89.46
13767;BME280;47980;48.794;9.176;2024-03-23T08:01:19;97620.63;;;9.39;89.38
13767;BME280;47980;48.794;9.176;2024-03-23T08:03:50;97612.06;;;9.79;87.94
13767;BME280;47980;48.794;9.176;2024-03-23T08:06:22;97621.13;;;9.78;88.92
13767;BME280;47980;48.794;9.176;2024-03-23T08:08:55;97639.00;;;9.69;91.50
13767;BME280;47980;48.794;9.176;2024-03-23T08:11:31;97644.97;;;9.90;92.63
13767;BME280;47980;48.794;9.176;2024-03-23T08:14:04;97661.22;;;10.13;88.49
13767;BME280;47980;48.794;9.176;2024-03-23T08:16:36;97672.56;;;9.89;88.62
13767;BME280;47980;48.794;9.176;2024-03-23T08:19:06;97672.38;;;10.31;88.43
13767;BME280;47980;48.794;9.176;2024-03-23T08:21:39;97671.25;;;10.20;86.51
13767;BME280;47980;48.794;9.176;2024-03-23T08:24:09;97672.47;;;10.34;88.96
13767;BME280;47980;48.794;9.176;2024-03-23T08:26:41;97688.25;;;10.19;86.82
13767;BME280;47980;48.794;9.176;2024-03-23T08:29:12;97705.28;;;10.30;86.03
13767;BME280;47980;48.794;9.176;2024-03-23T08:31:44;97708.34;;;10.07;84.55
13767;BME280;47980;48.794;9.176;2024-03-23T08:34:14;97718.59;;;9.97;86.96
13767;BME280;47980;48.794;9.176;2024-03-23T08:36:46;97739.22;;;9.79;86.59
13767;BME280;47980;48.794;9.176;2024-03-23T08:39:16;97750.94;;;9.90;87.64
13767;BME280;47980;48.794;9.176;2024-03-23T08:41:48;97753.09;;;9.76;88.29
13767;BME280;47980;48.794;9.176;2024-03-23T08:44:20;97756.03;;;9.95;90.44
13767;BME280;47980;48.794;9.176;2024-03-23T08:46:52;97751.16;;;9.85;90.12
13767;BME280;47980;48.794;9.176;2024-03-23T08:49:22;97740.53;;;10.30;85.68
13767;BME280;47980;48.794;9.176;2024-03-23T08:51:54;97743.16;;;10.30;85.47
13767;BME280;47980;48.794;9.176;2024-03-23T08:54:24;97739.31;;;10.65;84.16
13767;BME280;47980;48.794;9.176;2024-03-23T08:56:57;97737.75;;;10.51;81.17
13767;BME280;47980;48.794;9.176;2024-03-23T08:59:29;97748.00;;;10.16;80.54
13767;BME280;47980;48.794;9.176;2024-03-23T09:02:01;97747.28;;;10.28;79.32
13767;BME280;47980;48.794;9.176;2024-03-23T09:04:31;97768.25;;;10.33;77.58
13767;BME280;47980;48.794;9.176;2024-03-23T09:07:04;97778.63;;;10.26;76.12
13767;BME280;47980;48.794;9.176;2024-03-23T09:09:35;97792.91;;;10.00;76.79
13767;BME280;47980;48.794;9.176;2024-03-23T09:12:09;97801.13;;;10.20;75.90
13767;BME280;47980;48.794;9.176;2024-03-23T09:14:41;97815.59;;;9.77;75.31
13767;BME280;47980;48.794;9.176;2024-03-23T09:17:12;97829.59;;;10.10;78.24
13767;BME280;47980;48.794;9.176;2024-03-23T09:19:43;97834.56;;;10.12;76.78
13767;BME280;47980;48.794;9.176;2024-03-23T09:22:15;97822.59;;;10.27;76.36
13767;BME280;47980;48.794;9.176;2024-03-23T09:24:45;97822.75;;;10.43;77.88
13767;BME280;47980;48.794;9.176;2024-03-23T09:27:17;97840.31;;;10.59;76.24
13767;BME280;47980;48.794;9.176;2024-03-23T09:29:48;97836.88;;;10.59;76.24
13767;BME280;47980;48.794;9.176;2024-03-23T09:32:20;97835.34;;;10.82;74.49
13767;BME280;47980;48.794;9.176;2024-03-23T09:34:51;97822.97;;;11.51;71.32
13767;BME280;47980;48.794;9.176;2024-03-23T09:37:22;97834.00;;;11.66;71.05
13767;BME280;47980;48.794;9.176;2024-03-23T09:39:53;97827.34;;;12.16;68.05
13767;BME280;47980;48.794;9.176;2024-03-23T09:42:24;97834.28;;;11.76;64.78
13767;BME280;47980;48.794;9.176;2024-03-23T09:44:57;97828.88;;;11.73;61.32
13767;BME280;47980;48.794;9.176;2024-03-23T09:47:29;97824.34;;;11.33;61.35
13767;BME280;47980;48.794;9.176;2024-03-23T09:50:00;97822.78;;;11.32;60.49
13767;BME280;47980;48.794;9.176;2024-03-23T09:52:31;97811.53;;;11.11;59.63
13767;BME280;47980;48.794;9.176;2024-03-23T09:55:04;97820.47;;;11.30;60.48
13767;BME280;47980;48.794;9.176;2024-03-23T09:57:34;97815.47;;;11.41;60.27
13767;BME280;47980;48.794;9.176;2024-03-23T10:00:08;97831.41;;;11.41;57.96
13767;BME280;47980;48.794;9.176;2024-03-23T10:02:39;97829.38;;;11.78;57.54
13767;BME280;47980;48.794;9.176;2024-03-23T10:05:20;97832.34;;;11.89;55.38
13767;BME280;47980;48.794;9.176;2024-03-23T10:07:52;97826.56;;;11.99;56.26
13767;BME280;47980;48.794;9.176;2024-03-23T10:10:25;97834.28;;;11.76;55.06
13767;BME280;47980;48.794;9.176;2024-03-23T10:12:55;97822.28;;;11.82;54.16
13767;BME280;47980;48.794;9.176;2024-03-23T10:15:28;97819.66;;;12.42;52.79
13767;BME280;47980;48.794;9.176;2024-03-23T10:18:04;97816.50;;;11.93;53.72
13767;BME280;47980;48.794;9.176;2024-03-23T10:20:50;97814.16;;;11.63;52.96
13767;BME280;47980;48.794;9.176;2024-03-23T10:23:22;97814.38;;;11.70;53.71
13767;BME280;47980;48.794;9.176;2024-03-23T10:25:54;97809.53;;;12.48;53.07
13767;BME280;47980;48.794;9.176;2024-03-23T10:28:24;97807.00;;;13.22;51.43
13767;BME280;47980;48.794;9.176;2024-03-23T10:30:58;97792.63;;;13.62;52.21
13767;BME280;47980;48.794;9.176;2024-03-23T10:33:29;97796.63;;;13.17;52.21
13767;BME280;47980;48.794;9.176;2024-03-23T10:36:01;97796.38;;;13.06;51.17
13767;BME280;47980;48.794;9.176;2024-03-23T10:38:32;97808.28;;;12.77;50.35
13767;BME280;47980;48.794;9.176;2024-03-23T10:41:04;97812.97;;;12.17;53.32
13767;BME280;47980;48.794;9.176;2024-03-23T10:43:36;97792.38;;;12.14;53.65
13767;BME280;47980;48.794;9.176;2024-03-23T10:46:09;97806.03;;;11.84;54.65
13767;BME280;47980;48.794;9.176;2024-03-23T10:48:40;97811.63;;;11.54;54.37
13767;BME280;47980;48.794;9.176;2024-03-23T10:51:12;97831.72;;;11.40;53.98
13767;BME280;47980;48.794;9.176;2024-03-23T10:53:45;97851.47;;;10.53;58.65
13767;BME280;47980;48.794;9.176;2024-03-23T10:56:17;97877.72;;;9.79;62.09
13767;BME280;47980;48.794;9.176;2024-03-23T10:58:49;97884.19;;;9.49;68.76
13767;BME280;47980;48.794;9.176;2024-03-23T11:01:22;97898.75;;;9.13;72.43
13767;BME280;47980;48.794;9.176;2024-03-23T11:03:53;97907.38;;;9.01;75.54
13767;BME280;47980;48.794;9.176;2024-03-23T11:06:35;97926.31;;;8.65;79.91
13767;BME280;47980;48.794;9.176;2024-03-23T11:09:40;97926.19;;;8.61;81.06
13767;BME280;47980;48.794;9.176;2024-03-23T11:12:28;97891.34;;;8.59;79.18
13767;BME280;47980;48.794;9.176;2024-03-23T11:15:03;97867.94;;;8.79;81.87
13767;BME280;47980;48.794;9.176;2024-03-23T11:17:36;97883.72;;;9.47;78.14
13767;BME280;47980;48.794;9.176;2024-03-23T11:20:08;97872.84;;;9.19;79.46
13767;BME280;47980;48.794;9.176;2024-03-23T11:22:41;97874.75;;;9.39;77.00
13767;BME280;47980;48.794;9.176;2024-03-23T11:25:17;97872.34;;;9.25;78.71
13767;BME280;47980;48.794;9.176;2024-03-23T11:27:50;97866.84;;;9.60;79.20
13767;BME280;47980;48.794;9.176;2024-03-23T11:30:22;97876.09;;;9.87;80.46
13767;BME280;47980;48.794;9.176;2024-03-23T11:32:56;97862.53;;;10.09;80.23
13767;BME280;47980;48.794;9.176;2024-03-23T11:35:27;97873.00;;;10.51;75.38
13767;BME280;47980;48.794;9.176;2024-03-23T11:38:03;97873.81;;;10.64;74.26
13767;BME280;47980;48.794;9.176;2024-03-23T11:40:35;97861.31;;;10.77;75.22
13767;BME280;47980;48.794;9.176;2024-03-23T11:43:09;97868.63;;;10.80;76.17
13767;BME280;47980;48.794;9.176;2024-03-23T11:45:43;97851.44;;;11.39;74.28
13767;BME280;47980;48.794;9.176;2024-03-23T11:48:18;97851.22;;;11.31;65.97
13767;BME280;47980;48.794;9.176;2024-03-23T11:50:49;97858.88;;;11.73;66.12
13767;BME280;47980;48.794;9.176;2024-03-23T11:53:23;97848.72;;;11.63;63.33
13767;BME280;47980;48.794;9.176;2024-03-23T11:55:55;97856.56;;;11.07;63.42
13767;BME280;47980;48.794;9.176;2024-03-23T11:58:29;97850.50;;;11.47;61.89
13767;BME280;47980;48.794;9.176;2024-03-23T12:01:00;97846.34;;;11.74;61.67
13767;BME280;47980;48.794;9.176;2024-03-23T12:03:34;97834.66;;;11.91;58.48
13767;BME280;47980;48.794;9.176;2024-03-23T12:06:05;97838.41;;;11.62;56.83
13767;BME280;47980;48.794;9.176;2024-03-23T12:08:37;97832.41;;;11.65;58.74
13767;BME280;47980;48.794;9.176;2024-03-23T12:11:10;97823.94;;;11.19;58.90
13767;BME280;47980;48.794;9.176;2024-03-23T12:13:43;97832.78;;;11.51;59.13
13767;BME280;47980;48.794;9.176;2024-03-23T12:16:17;97833.25;;;11.53;57.89
13767;BME280;47980;48.794;9.176;2024-03-23T12:18:51;97848.06;;;11.54;59.30
13767;BME280;47980;48.794;9.176;2024-03-23T12:21:22;97834.75;;;11.26;56.18
13767;BME280;47980;48.794;9.176;2024-03-23T12:23:53;97836.44;;;11.59;56.81
13767;BME280;47980;48.794;9.176;2024-03-23T12:26:24;97832.00;;;11.63;56.13
13767;BME280;47980;48.794;9.176;2024-03-23T12:28:55;97827.47;;;11.51;53.61
13767;BME280;47980;48.794;9.176;2024-03-23T12:31:26;97820.25;;;11.64;54.87
13767;BME280;47980;48.794;9.176;2024-03-23T12:34:00;97831.19;;;11.74;55.62
13767;BME280;47980;48.794;9.176;2024-03-23T12:36:30;97827.97;;;11.69;54.47
13767;BME280;47980;48.794;9.176;2024-03-23T12:39:02;97827.03;;;12.17;53.82
13767;BME280;47980;48.794;9.176;2024-03-23T12:41:32;97830.78;;;12.16;54.04
13767;BME280;47980;48.794;9.176;2024-03-23T12:44:04;97834.91;;;12.14;56.74
13767;BME280;47980;48.794;9.176;2024-03-23T12:46:35;97833.16;;;11.77;55.18
13767;BME280;47980;48.794;9.176;2024-03-23T12:49:07;97836.56;;;11.90;53.74
13767;BME280;47980;48.794;9.176;2024-03-23T12:51:38;97842.94;;;11.73;54.74
13767;BME280;47980;48.794;9.176;2024-03-23T12:54:10;97846.09;;;11.91;54.85
13767;BME280;47980;48.794;9.176;2024-03-23T12:56:41;97838.31;;;11.58;53.83
13767;BME280;47980;48.794;9.176;2024-03-23T12:59:12;97842.16;;;11.73;54.72
13767;BME280;47980;48.794;9.176;2024-03-23T13:01:44;97834.34;;;11.80;54.51
13767;BME280;47980;48.794;9.176;2024-03-23T13:04:16;97827.69;;;12.14;53.94
13767;BME280;47980;48.794;9.176;2024-03-23T13:06:47;97809.34;;;12.41;53.03
13767;BME280;47980;48.794;9.176;2024-03-23T13:09:18;97809.28;;;12.53;54.41
13767;BME280;47980;48.794;9.176;2024-03-23T13:11:49;97810.63;;;12.63;53.57
13767;BME280;47980;48.794;9.176;2024-03-23T13:14:20;97807.97;;;12.47;53.06
13767;BME280;47980;48.794;9.176;2024-03-23T13:16:51;97806.50;;;12.34;52.30
13767;BME280;47980;48.794;9.176;2024-03-23T13:19:24;97804.97;;;12.33;52.99
13767;BME280;47980;48.794;9.176;2024-03-23T13:21:57;97801.53;;;12.48;53.20
13767;BME280;47980;48.794;9.176;2024-03-23T13:24:30;97784.88;;;12.03;52.35
13767;BME280;47980;48.794;9.176;2024-03-23T13:27:01;97797.75;;;11.73;50.60
13767;BME280;47980;48.794;9.176;2024-03-23T13:29:33;97782.28;;;11.63;52.38
13767;BME280;47980;48.794;9.176;2024-03-23T13:32:05;97779.91;;;11.46;52.10
13767;BME280;47980;48.794;9.176;2024-03-23T13:34:38;97771.59;;;11.75;51.34
13767;BME280;47980;48.794;9.176;2024-03-23T13:37:10;97769.81;;;11.79;53.30
13767;BME280;47980;48.794;9.176;2024-03-23T13:39:41;97757.28;;;11.80;50.07
13767;BME280;47980;48.794;9.176;2024-03-23T13:42:12;97754.47;;;11.73;49.40
13767;BME280;47980;48.794;9.176;2024-03-23T13:44:46;97759.50;;;12.06;48.66
13767;BME280;47980;48.794;9.176;2024-03-23T13:47:16;97761.03;;;12.23;48.17
13767;BME280;47980;48.794;9.176;2024-03-23T13:49:51;97744.41;;;12.42;48.25
13767;BME280;47980;48.794;9.176;2024-03-23T13:52:22;97757.41;;;12.79;48.17
13767;BME280;47980;48.794;9.176;2024-03-23T13:54:56;97761.28;;;12.65;46.83
13767;BME280;47980;48.794;9.176;2024-03-23T13:57:26;97753.75;;;12.87;46.73
13767;BME280;47980;48.794;9.176;2024-03-23T13:59:58;97752.94;;;13.21;46.81
13767;BME280;47980;48.794;9.176;2024-03-23T14:02:29;97789.53;;;12.07;48.39
13767;BME280;47980;48.794;9.176;2024-03-23T14:05:03;97816.13;;;11.38;53.20
13767;BME280;47980;48.794;9.176;2024-03-23T14:07:34;97814.84;;;10.22;59.54
13767;BME280;47980;48.794;9.176;2024-03-23T14:10:07;97829.06;;;9.84;64.50
13767;BME280;47980;48.794;9.176;2024-03-23T14:12:37;97834.88;;;9.44;70.80
13767;BME280;47980;48.794;9.176;2024-03-23T14:15:09;97849.09;;;8.42;76.85
13767;BME280;47980;48.794;9.176;2024-03-23T14:17:39;97854.31;;;7.78;80.87
13767;BME280;47980;48.794;9.176;2024-03-23T14:20:13;97866.38;;;7.09;86.83
13767;BME280;47980;48.794;9.176;2024-03-23T14:22:43;97843.41;;;7.01;89.80